Terminal Aerodrome Forecast
Issued by NWS

Home | Current Version | Previous Version | Text Only | Print | Product List | Glossary On
Versions: 1 2 3 4 5 6 7 8 9 10 11 12 13 14 15 16 17 18 19 20 21
000
FTAK31 PAJN 022321
TAFAPG
TAF
PAPG 022321Z 0300/0324 05005KT P6SM -SHRA SCT035 BKN070
     FM030600 00000KT P6SM VCSH FEW005 SCT015 OVC035
     FM031100 VRB03KT 4SM -SHRA BR SCT005 OVC015
     FM031500 06004KT P6SM -SHRA SCT015 BKN040 OVC060=

USA.gov is the U.S. government's official web portal to all federal, state and local government web resources and services.